HISTORICAL SENSOR DATA

Sensor Data Report

DB LIVE
CURRENT TIME--:--:--
DEVICE NETWORK Gateway Status
13 ESP · realtime ~1s · history 60s
Weather WS-MOD-01
ONLINE
Actuator ACT-MOD-01
OFFLINE
Mainboard L3 MB-L3-01
ONLINE
Mainboard L5 MB-L5-01
ONLINE
Remote AC AC-REMOTE-01
OFFLINE
PZEM L3-01 PWR-L3-01
OFFLINE
PZEM L3-02 PWR-L3-02
OFFLINE
PZEM L3-03 PWR-L3-03
OFFLINE
PZEM L3-04 PWR-L3-04
OFFLINE
PZEM L5-01 PWR-L5-01
ONLINE
PZEM L5-02 PWR-L5-02
OFFLINE
PZEM L5-03 PWR-L5-03
OFFLINE
PZEM L5-04 PWR-L5-04
OFFLINE
REPORT FILTER

Periode & Sensor

DATABASE HISTORY
RESET
QUICK RANGE Hari ini 7 hari 30 hari
PERIODE08 Aug 2026sampai 06 Sep 2026
TOTAL DATA45,990sensor readings
MINIMUM-0.50sesuai filter
AVERAGE91.92sesuai filter
MAXIMUM32,564.20sesuai filter
REPORT RESULT

Data Sensor

08/08/2026 — 06/09/2026 EXPORT CSV
NOTANGGALWAKTUDEVICECHANNELSENSORVALUEUNIT
2201 06/09/2026 16:07:00 MB-L5-01Mainboard Lantai 5 L5-BGT-01 Black Globe Temperature 1 29.70 °C
2202 06/09/2026 16:07:00 WS-MOD-01Weather Station Module WS-DIR Arah Angin 259.80 °
2203 06/09/2026 16:07:00 WS-MOD-01Weather Station Module WS-PRES Tekanan Udara 908.00 hPa
2204 06/09/2026 16:07:00 WS-MOD-01Weather Station Module WS-WIND Kecepatan Angin 14.32 m/s
2205 06/09/2026 16:07:00 WS-MOD-01Weather Station Module WS-TEMP Suhu Udara 27.90 °C
2206 06/09/2026 16:07:00 WS-MOD-01Weather Station Module WS-RH Kelembapan Udara 48.60 %RH
2207 06/09/2026 16:07:00 MB-L5-01Mainboard Lantai 5 L5-AI-05 Analog Input 5 3.05 V
2208 06/09/2026 16:07:00 MB-L5-01Mainboard Lantai 5 L5-AI-03 Analog Input 3 3.05 V
2209 06/09/2026 16:07:00 MB-L5-01Mainboard Lantai 5 L5-HFT-01 Heat Flow Temperature 1 32.90 °C
2210 06/09/2026 16:07:00 MB-L5-01Mainboard Lantai 5 L5-AI-01 Analog Input 1 3.05 V
2211 06/09/2026 16:06:00 MB-L5-01Mainboard Lantai 5 L5-AI-04 Analog Input 4 3.05 V
2212 06/09/2026 16:06:00 MB-L5-01Mainboard Lantai 5 L5-HFT-02 Heat Flow Temperature 2 29.70 °C
2213 06/09/2026 16:06:00 MB-L5-01Mainboard Lantai 5 L5-AI-02 Analog Input 2 3.05 V
2214 06/09/2026 16:06:00 MB-L5-01Mainboard Lantai 5 L5-BGT-03 Black Globe Temperature 3 29.30 °C
2215 06/09/2026 16:06:00 MB-L5-01Mainboard Lantai 5 L5-ST-02 Surface Temperature 2 29.70 °C
2216 06/09/2026 16:06:00 MB-L5-01Mainboard Lantai 5 L5-BGT-01 Black Globe Temperature 1 29.70 °C
2217 06/09/2026 16:06:00 WS-MOD-01Weather Station Module WS-DIR Arah Angin 279.60 °
2218 06/09/2026 16:06:00 WS-MOD-01Weather Station Module WS-PRES Tekanan Udara 908.00 hPa
2219 06/09/2026 16:06:00 WS-MOD-01Weather Station Module WS-WIND Kecepatan Angin 6.59 m/s
2220 06/09/2026 16:06:00 WS-MOD-01Weather Station Module WS-TEMP Suhu Udara 28.00 °C
2221 06/09/2026 16:06:00 WS-MOD-01Weather Station Module WS-RH Kelembapan Udara 48.60 %RH
2222 06/09/2026 16:06:00 MB-L5-01Mainboard Lantai 5 L5-AI-05 Analog Input 5 3.05 V
2223 06/09/2026 16:06:00 MB-L5-01Mainboard Lantai 5 L5-AI-03 Analog Input 3 3.05 V
2224 06/09/2026 16:06:00 MB-L5-01Mainboard Lantai 5 L5-HFT-01 Heat Flow Temperature 1 32.80 °C
2225 06/09/2026 16:06:00 MB-L5-01Mainboard Lantai 5 L5-AI-01 Analog Input 1 3.05 V
2226 06/09/2026 16:06:00 MB-L5-01Mainboard Lantai 5 L5-BGT-02 Black Globe Temperature 2 29.20 °C
2227 06/09/2026 16:06:00 MB-L5-01Mainboard Lantai 5 L5-ST-01 Surface Temperature 1 32.10 °C
2228 06/09/2026 16:06:00 MB-L5-01Mainboard Lantai 5 L5-AI-06 Analog Input 6 3.05 V
2229 06/09/2026 16:05:00 MB-L5-01Mainboard Lantai 5 L5-BGT-03 Black Globe Temperature 3 28.80 °C
2230 06/09/2026 16:05:00 MB-L5-01Mainboard Lantai 5 L5-ST-02 Surface Temperature 2 29.20 °C
2231 06/09/2026 16:05:00 MB-L5-01Mainboard Lantai 5 L5-BGT-01 Black Globe Temperature 1 29.70 °C
2232 06/09/2026 16:05:00 WS-MOD-01Weather Station Module WS-DIR Arah Angin 310.00 °
2233 06/09/2026 16:05:00 WS-MOD-01Weather Station Module WS-PRES Tekanan Udara 908.00 hPa
2234 06/09/2026 16:05:00 WS-MOD-01Weather Station Module WS-WIND Kecepatan Angin 12.57 m/s
2235 06/09/2026 16:05:00 WS-MOD-01Weather Station Module WS-TEMP Suhu Udara 27.90 °C
2236 06/09/2026 16:05:00 WS-MOD-01Weather Station Module WS-RH Kelembapan Udara 48.60 %RH
2237 06/09/2026 16:05:00 MB-L5-01Mainboard Lantai 5 L5-AI-05 Analog Input 5 3.05 V
2238 06/09/2026 16:05:00 MB-L5-01Mainboard Lantai 5 L5-AI-03 Analog Input 3 3.05 V
2239 06/09/2026 16:05:00 MB-L5-01Mainboard Lantai 5 L5-HFT-01 Heat Flow Temperature 1 32.80 °C
2240 06/09/2026 16:05:00 MB-L5-01Mainboard Lantai 5 L5-AI-01 Analog Input 1 3.05 V
2241 06/09/2026 16:05:00 MB-L5-01Mainboard Lantai 5 L5-BGT-02 Black Globe Temperature 2 29.20 °C
2242 06/09/2026 16:05:00 MB-L5-01Mainboard Lantai 5 L5-ST-01 Surface Temperature 1 32.10 °C
2243 06/09/2026 16:05:00 MB-L5-01Mainboard Lantai 5 L5-AI-06 Analog Input 6 3.05 V
2244 06/09/2026 16:05:00 MB-L5-01Mainboard Lantai 5 L5-AI-04 Analog Input 4 3.05 V
2245 06/09/2026 16:05:00 MB-L5-01Mainboard Lantai 5 L5-HFT-02 Heat Flow Temperature 2 29.20 °C
2246 06/09/2026 16:05:00 MB-L5-01Mainboard Lantai 5 L5-AI-02 Analog Input 2 3.05 V
2247 06/09/2026 16:04:00 WS-MOD-01Weather Station Module WS-PRES Tekanan Udara 908.00 hPa
2248 06/09/2026 16:04:00 WS-MOD-01Weather Station Module WS-WIND Kecepatan Angin 7.10 m/s
2249 06/09/2026 16:04:00 WS-MOD-01Weather Station Module WS-TEMP Suhu Udara 27.80 °C
2250 06/09/2026 16:04:00 WS-MOD-01Weather Station Module WS-RH Kelembapan Udara 48.90 %RH
2251 06/09/2026 16:04:00 MB-L5-01Mainboard Lantai 5 L5-AI-05 Analog Input 5 3.05 V
2252 06/09/2026 16:04:00 MB-L5-01Mainboard Lantai 5 L5-AI-03 Analog Input 3 3.05 V
2253 06/09/2026 16:04:00 MB-L5-01Mainboard Lantai 5 L5-HFT-01 Heat Flow Temperature 1 33.00 °C
2254 06/09/2026 16:04:00 MB-L5-01Mainboard Lantai 5 L5-AI-01 Analog Input 1 3.05 V
2255 06/09/2026 16:04:00 MB-L5-01Mainboard Lantai 5 L5-BGT-02 Black Globe Temperature 2 28.80 °C
2256 06/09/2026 16:04:00 MB-L5-01Mainboard Lantai 5 L5-ST-01 Surface Temperature 1 32.40 °C
2257 06/09/2026 16:04:00 MB-L5-01Mainboard Lantai 5 L5-AI-06 Analog Input 6 3.05 V
2258 06/09/2026 16:04:00 MB-L5-01Mainboard Lantai 5 L5-AI-04 Analog Input 4 3.05 V
2259 06/09/2026 16:04:00 MB-L5-01Mainboard Lantai 5 L5-HFT-02 Heat Flow Temperature 2 29.30 °C
2260 06/09/2026 16:04:00 MB-L5-01Mainboard Lantai 5 L5-AI-02 Analog Input 2 3.05 V
2261 06/09/2026 16:04:00 MB-L5-01Mainboard Lantai 5 L5-BGT-03 Black Globe Temperature 3 28.80 °C
2262 06/09/2026 16:04:00 MB-L5-01Mainboard Lantai 5 L5-ST-02 Surface Temperature 2 29.20 °C
2263 06/09/2026 16:04:00 MB-L5-01Mainboard Lantai 5 L5-BGT-01 Black Globe Temperature 1 29.50 °C
2264 06/09/2026 16:04:00 WS-MOD-01Weather Station Module WS-DIR Arah Angin 303.30 °
2265 06/09/2026 16:03:00 MB-L5-01Mainboard Lantai 5 L5-HFT-01 Heat Flow Temperature 1 32.90 °C
2266 06/09/2026 16:03:00 MB-L5-01Mainboard Lantai 5 L5-AI-01 Analog Input 1 3.05 V
2267 06/09/2026 16:03:00 MB-L5-01Mainboard Lantai 5 L5-BGT-02 Black Globe Temperature 2 29.00 °C
2268 06/09/2026 16:03:00 MB-L5-01Mainboard Lantai 5 L5-ST-01 Surface Temperature 1 32.10 °C
2269 06/09/2026 16:03:00 MB-L5-01Mainboard Lantai 5 L5-AI-06 Analog Input 6 3.05 V
2270 06/09/2026 16:03:00 MB-L5-01Mainboard Lantai 5 L5-AI-04 Analog Input 4 3.05 V
2271 06/09/2026 16:03:00 MB-L5-01Mainboard Lantai 5 L5-HFT-02 Heat Flow Temperature 2 29.60 °C
2272 06/09/2026 16:03:00 MB-L5-01Mainboard Lantai 5 L5-AI-02 Analog Input 2 3.05 V
2273 06/09/2026 16:03:00 MB-L5-01Mainboard Lantai 5 L5-BGT-03 Black Globe Temperature 3 29.10 °C
2274 06/09/2026 16:03:00 MB-L5-01Mainboard Lantai 5 L5-ST-02 Surface Temperature 2 29.40 °C
2275 06/09/2026 16:03:00 MB-L5-01Mainboard Lantai 5 L5-BGT-01 Black Globe Temperature 1 29.60 °C
2276 06/09/2026 16:03:00 WS-MOD-01Weather Station Module WS-DIR Arah Angin 319.20 °
2277 06/09/2026 16:03:00 WS-MOD-01Weather Station Module WS-PRES Tekanan Udara 908.00 hPa
2278 06/09/2026 16:03:00 WS-MOD-01Weather Station Module WS-WIND Kecepatan Angin 11.07 m/s
2279 06/09/2026 16:03:00 WS-MOD-01Weather Station Module WS-TEMP Suhu Udara 27.90 °C
2280 06/09/2026 16:03:00 WS-MOD-01Weather Station Module WS-RH Kelembapan Udara 48.40 %RH
2281 06/09/2026 16:03:00 MB-L5-01Mainboard Lantai 5 L5-AI-05 Analog Input 5 3.05 V
2282 06/09/2026 16:03:00 MB-L5-01Mainboard Lantai 5 L5-AI-03 Analog Input 3 3.05 V
2283 06/09/2026 16:02:00 MB-L5-01Mainboard Lantai 5 L5-ST-01 Surface Temperature 1 32.50 °C
2284 06/09/2026 16:02:00 MB-L5-01Mainboard Lantai 5 L5-AI-06 Analog Input 6 3.05 V
2285 06/09/2026 16:02:00 MB-L5-01Mainboard Lantai 5 L5-AI-04 Analog Input 4 3.05 V
2286 06/09/2026 16:02:00 MB-L5-01Mainboard Lantai 5 L5-HFT-02 Heat Flow Temperature 2 29.50 °C
2287 06/09/2026 16:02:00 MB-L5-01Mainboard Lantai 5 L5-AI-02 Analog Input 2 3.05 V
2288 06/09/2026 16:02:00 MB-L5-01Mainboard Lantai 5 L5-BGT-03 Black Globe Temperature 3 28.90 °C
2289 06/09/2026 16:02:00 MB-L5-01Mainboard Lantai 5 L5-ST-02 Surface Temperature 2 29.20 °C
2290 06/09/2026 16:02:00 MB-L5-01Mainboard Lantai 5 L5-BGT-01 Black Globe Temperature 1 29.70 °C
2291 06/09/2026 16:02:00 WS-MOD-01Weather Station Module WS-DIR Arah Angin 253.50 °
2292 06/09/2026 16:02:00 WS-MOD-01Weather Station Module WS-PRES Tekanan Udara 908.00 hPa
2293 06/09/2026 16:02:00 WS-MOD-01Weather Station Module WS-WIND Kecepatan Angin 9.35 m/s
2294 06/09/2026 16:02:00 WS-MOD-01Weather Station Module WS-TEMP Suhu Udara 28.40 °C
2295 06/09/2026 16:02:00 WS-MOD-01Weather Station Module WS-RH Kelembapan Udara 48.10 %RH
2296 06/09/2026 16:02:00 MB-L5-01Mainboard Lantai 5 L5-AI-05 Analog Input 5 3.05 V
2297 06/09/2026 16:02:00 MB-L5-01Mainboard Lantai 5 L5-AI-03 Analog Input 3 3.05 V
2298 06/09/2026 16:02:00 MB-L5-01Mainboard Lantai 5 L5-HFT-01 Heat Flow Temperature 1 33.20 °C
2299 06/09/2026 16:02:00 MB-L5-01Mainboard Lantai 5 L5-AI-01 Analog Input 1 3.05 V
2300 06/09/2026 16:02:00 MB-L5-01Mainboard Lantai 5 L5-BGT-02 Black Globe Temperature 2 28.90 °C
Menampilkan maksimal 100 data per halaman